createdAt,value
2022-09-15T00:00:22.331Z,2.00
2022-09-15T00:01:22.727Z,2.10
2022-09-15T00:02:22.520Z,2.40
2022-09-15T00:03:22.308Z,1.80
2022-09-15T00:04:22.288Z,2.50
2022-09-15T00:05:22.291Z,2.60
2022-09-15T00:06:22.267Z,1.70
2022-09-15T00:07:22.284Z,2.20
2022-09-15T00:08:22.523Z,2.20
2022-09-15T00:09:22.250Z,3.00
2022-09-15T00:10:22.218Z,3.60
2022-09-15T00:11:22.247Z,2.60
2022-09-15T00:12:22.206Z,2.50
2022-09-15T00:13:22.246Z,2.30
2022-09-15T00:14:22.195Z,2.40
2022-09-15T00:15:22.496Z,1.90
2022-09-15T00:16:22.219Z,2.70
2022-09-15T00:17:22.161Z,2.90
2022-09-15T00:18:22.136Z,2.50
2022-09-15T00:19:22.170Z,2.40
2022-09-15T00:20:22.122Z,1.80
2022-09-15T00:21:22.128Z,2.30
2022-09-15T00:22:22.384Z,2.90
2022-09-15T00:23:22.112Z,1.20
2022-09-15T00:24:22.093Z,2.20
2022-09-15T00:25:22.128Z,2.30
2022-09-15T00:26:22.058Z,3.20
2022-09-15T00:27:22.074Z,2.20
2022-09-15T00:28:22.048Z,2.50
2022-09-15T00:29:22.329Z,2.70
2022-09-15T00:30:22.016Z,1.50
2022-09-15T00:31:22.163Z,2.30
2022-09-15T00:32:22.003Z,2.20
2022-09-15T00:33:22.005Z,2.70
2022-09-15T00:34:21.972Z,2.70
2022-09-15T00:35:21.980Z,2.00
2022-09-15T00:36:22.228Z,2.20
2022-09-15T00:37:21.980Z,2.20
2022-09-15T00:38:21.929Z,2.40
2022-09-15T00:39:21.935Z,2.00
2022-09-15T00:40:21.936Z,2.90
2022-09-15T00:41:21.906Z,2.80
2022-09-15T00:42:21.885Z,2.40
2022-09-15T00:43:22.191Z,1.70
2022-09-15T00:44:21.881Z,2.40
2022-09-15T00:45:21.873Z,2.00
2022-09-15T00:46:21.926Z,2.30
2022-09-15T00:47:21.891Z,2.00
2022-09-15T00:48:21.831Z,2.30
2022-09-15T00:49:21.857Z,1.90
2022-09-15T00:50:22.088Z,1.90
2022-09-15T00:51:21.799Z,2.60
2022-09-15T00:52:21.785Z,2.10
2022-09-15T00:53:21.783Z,2.40
2022-09-15T00:54:21.778Z,2.90
2022-09-15T00:55:21.799Z,2.30
2022-09-15T00:56:21.738Z,1.40
2022-09-15T00:57:22.070Z,1.70
2022-09-15T00:58:21.746Z,1.50
2022-09-15T00:59:21.736Z,1.90
2022-09-15T01:00:21.697Z,2.00
2022-09-15T01:01:21.837Z,2.30
2022-09-15T01:02:21.704Z,2.40
2022-09-15T01:03:21.671Z,2.10
2022-09-15T01:04:21.659Z,2.30
2022-09-15T01:05:21.648Z,2.00
2022-09-15T01:06:21.637Z,2.20
2022-09-15T01:07:21.669Z,2.80
2022-09-15T01:08:21.655Z,1.70
2022-09-15T01:09:21.613Z,1.60
2022-09-15T01:10:21.592Z,1.90
2022-09-15T01:11:21.609Z,2.10
2022-09-15T01:12:21.580Z,2.40
2022-09-15T01:13:21.593Z,2.30
2022-09-15T01:14:21.559Z,2.70
2022-09-15T01:15:21.566Z,2.60
2022-09-15T01:16:21.849Z,1.60
2022-09-15T01:17:21.552Z,1.70
2022-09-15T01:18:21.507Z,1.90
2022-09-15T01:19:21.534Z,2.20
2022-09-15T01:20:21.504Z,2.60
2022-09-15T01:21:21.481Z,1.60
2022-09-15T01:22:21.457Z,2.20
2022-09-15T01:23:21.464Z,1.80
2022-09-15T01:24:21.465Z,1.60
2022-09-15T01:25:21.465Z,1.70
2022-09-15T01:26:21.428Z,2.10
2022-09-15T01:27:40.879Z,1.70
2022-09-15T01:28:21.418Z,1.60
2022-09-15T01:29:21.873Z,2.00
2022-09-15T01:30:21.375Z,2.90
2022-09-15T01:31:21.465Z,2.00
2022-09-15T01:32:21.361Z,2.20
2022-09-15T01:33:21.353Z,2.90
2022-09-15T01:34:21.618Z,1.90
2022-09-15T01:35:21.333Z,2.20
2022-09-15T01:36:21.330Z,2.70
2022-09-15T01:37:21.358Z,1.70
2022-09-15T01:38:21.294Z,2.40
2022-09-15T01:39:21.294Z,2.50
2022-09-15T01:40:21.345Z,2.30
2022-09-15T01:41:21.289Z,2.10
2022-09-15T01:42:21.275Z,2.60
2022-09-15T01:43:21.280Z,1.70
2022-09-15T01:44:21.229Z,1.80
2022-09-15T01:45:21.291Z,3.10
2022-09-15T01:46:21.228Z,2.30
2022-09-15T01:47:21.486Z,2.00
2022-09-15T01:48:21.192Z,2.40
2022-09-15T01:49:21.223Z,1.90
2022-09-15T01:50:21.159Z,1.90
2022-09-15T01:51:21.187Z,2.10
2022-09-15T01:52:21.160Z,1.90
2022-09-15T01:53:21.155Z,1.60
2022-09-15T01:54:21.411Z,2.80
2022-09-15T01:55:21.176Z,2.30
2022-09-15T01:56:21.099Z,2.30
2022-09-15T01:57:21.128Z,2.20
2022-09-15T01:58:21.086Z,1.70
2022-09-15T01:59:21.087Z,1.90
2022-09-15T02:00:21.087Z,1.80
2022-09-15T02:01:21.412Z,2.20
2022-09-15T02:02:21.147Z,1.40
2022-09-15T02:03:21.041Z,1.60
2022-09-15T02:04:21.041Z,2.20
2022-09-15T02:05:21.035Z,2.20
2022-09-15T02:06:20.998Z,2.10
2022-09-15T02:07:21.060Z,2.00
2022-09-15T02:08:21.276Z,1.80
2022-09-15T02:09:20.982Z,2.50
2022-09-15T02:10:20.986Z,2.00
2022-09-15T02:11:20.966Z,2.30
2022-09-15T02:12:20.943Z,2.40
2022-09-15T02:13:20.978Z,1.90
2022-09-15T02:14:20.922Z,2.20
2022-09-15T02:15:21.192Z,2.60
2022-09-15T02:16:20.935Z,2.30
2022-09-15T02:17:20.893Z,2.80
2022-09-15T02:18:20.896Z,2.40
2022-09-15T02:19:20.890Z,2.70
2022-09-15T02:20:20.868Z,2.50
2022-09-15T02:21:20.831Z,1.80
2022-09-15T02:22:20.851Z,1.80
2022-09-15T02:23:20.819Z,2.00
2022-09-15T02:24:20.820Z,2.30
2022-09-15T02:25:20.829Z,1.90
2022-09-15T02:26:20.821Z,2.60
2022-09-15T02:27:20.781Z,2.90
2022-09-15T02:28:21.062Z,2.00
2022-09-15T02:29:20.764Z,2.80
2022-09-15T02:30:20.765Z,2.80
2022-09-15T02:31:20.825Z,1.70
2022-09-15T02:32:20.768Z,2.90
2022-09-15T02:33:20.742Z,2.00
2022-09-15T02:34:20.748Z,4.10
2022-09-15T02:35:20.693Z,2.50
2022-09-15T02:36:20.693Z,2.10
2022-09-15T02:37:20.707Z,2.10
2022-09-15T02:38:20.671Z,2.10
2022-09-15T02:39:20.661Z,2.10
2022-09-15T02:40:21.032Z,1.70
2022-09-15T02:41:20.630Z,3.00
2022-09-15T02:42:20.632Z,1.50
2022-09-15T02:43:20.670Z,2.50
2022-09-15T02:44:20.607Z,2.20
2022-09-15T02:45:20.650Z,2.10
2022-09-15T02:46:20.589Z,2.10
2022-09-15T02:47:20.567Z,2.30
2022-09-15T02:48:20.577Z,1.60
2022-09-15T02:49:20.590Z,1.70
2022-09-15T02:50:20.564Z,2.70
2022-09-15T02:51:20.527Z,1.50
2022-09-15T02:52:20.809Z,1.30
2022-09-15T02:53:20.506Z,1.40
2022-09-15T02:54:20.533Z,2.30
2022-09-15T02:55:20.511Z,1.90
2022-09-15T02:56:20.499Z,1.30
2022-09-15T02:57:20.468Z,1.70
2022-09-15T02:58:20.481Z,2.00
2022-09-15T02:59:20.716Z,2.00
2022-09-15T03:00:20.435Z,1.70
2022-09-15T03:01:20.507Z,2.00
2022-09-15T03:02:20.690Z,2.10
2022-09-15T03:03:20.392Z,1.70
2022-09-15T03:04:20.384Z,1.40
2022-09-15T03:05:20.373Z,1.50
2022-09-15T03:06:20.661Z,2.30
2022-09-15T03:07:20.379Z,2.00
2022-09-15T03:08:20.359Z,2.00
2022-09-15T03:09:20.338Z,2.10
2022-09-15T03:10:20.320Z,2.40
2022-09-15T03:11:20.308Z,2.10
2022-09-15T03:12:20.333Z,2.10
2022-09-15T03:13:20.614Z,2.50
2022-09-15T03:14:20.283Z,1.90
2022-09-15T03:15:20.274Z,1.50
2022-09-15T03:16:20.322Z,1.30
2022-09-15T03:17:20.242Z,1.30
2022-09-15T03:18:20.239Z,1.40
2022-09-15T03:19:20.256Z,1.50
2022-09-15T03:20:20.512Z,1.80
2022-09-15T03:21:20.223Z,2.20
2022-09-15T03:22:20.220Z,1.90
2022-09-15T03:23:20.173Z,1.80
2022-09-15T03:24:20.174Z,1.90
2022-09-15T03:25:20.191Z,1.70
2022-09-15T03:26:20.172Z,1.80
2022-09-15T03:27:20.421Z,1.40
2022-09-15T03:28:20.133Z,1.90
2022-09-15T03:29:20.122Z,1.40
2022-09-15T03:30:20.112Z,1.60
2022-09-15T03:31:20.178Z,2.20
2022-09-15T03:32:20.106Z,2.20
2022-09-15T03:33:20.082Z,1.20
2022-09-15T03:34:20.078Z,1.20
2022-09-15T03:35:20.060Z,1.70
2022-09-15T03:36:20.055Z,1.90
2022-09-15T03:37:20.070Z,1.70
2022-09-15T03:38:20.034Z,1.90
2022-09-15T03:39:20.018Z,2.30
2022-09-15T03:40:20.358Z,1.60
2022-09-15T03:41:19.982Z,1.80
2022-09-15T03:42:19.979Z,1.50
2022-09-15T03:43:19.997Z,1.60
2022-09-15T03:44:19.961Z,1.80
2022-09-15T03:45:19.965Z,1.90
2022-09-15T03:46:19.987Z,1.40
2022-09-15T03:47:20.215Z,1.20
2022-09-15T03:48:19.940Z,1.40
2022-09-15T03:49:19.931Z,1.80
2022-09-15T03:50:19.891Z,1.80
2022-09-15T03:51:19.876Z,1.50
2022-09-15T03:52:19.874Z,1.80
2022-09-15T03:53:19.853Z,1.70
2022-09-15T03:54:19.852Z,1.70
2022-09-15T03:55:19.861Z,1.90
2022-09-15T03:56:19.858Z,1.80
2022-09-15T03:57:19.823Z,1.90
2022-09-15T03:58:19.810Z,1.70
2022-09-15T03:59:19.792Z,2.50
2022-09-15T04:00:21.093Z,1.50
2022-09-15T04:01:20.186Z,1.30
2022-09-15T04:02:19.846Z,2.20
2022-09-15T04:03:19.755Z,1.70
2022-09-15T04:04:19.763Z,2.40
2022-09-15T04:05:19.750Z,1.70
2022-09-15T04:06:19.734Z,2.00
2022-09-15T04:07:20.043Z,2.10
2022-09-15T04:08:19.706Z,2.20
2022-09-15T04:09:20.438Z,1.80
2022-09-15T04:10:19.676Z,2.00
2022-09-15T04:11:19.666Z,2.00
2022-09-15T04:12:19.676Z,1.80
2022-09-15T04:13:19.693Z,1.80
2022-09-15T04:14:19.635Z,1.80
2022-09-15T04:15:19.625Z,2.50
2022-09-15T04:16:19.680Z,2.00
2022-09-15T04:17:19.593Z,1.60
2022-09-15T04:18:19.593Z,1.90
2022-09-15T04:19:19.893Z,2.20
2022-09-15T04:20:19.562Z,1.60
2022-09-15T04:21:19.559Z,1.90
2022-09-15T04:22:19.551Z,2.70
2022-09-15T04:23:19.531Z,2.00
2022-09-15T04:24:19.545Z,2.20
2022-09-15T04:25:19.551Z,1.90
2022-09-15T04:26:19.514Z,3.10
2022-09-15T04:27:19.479Z,1.50
2022-09-15T04:28:19.476Z,2.00
2022-09-15T04:29:19.456Z,2.00
2022-09-15T04:30:19.460Z,2.20
2022-09-15T04:31:19.807Z,2.20
2022-09-15T04:32:19.438Z,1.80
2022-09-15T04:33:19.420Z,1.60
2022-09-15T04:34:19.432Z,2.40
2022-09-15T04:35:19.391Z,1.80
2022-09-15T04:36:19.408Z,2.10
2022-09-15T04:37:19.413Z,2.00
2022-09-15T04:38:19.367Z,2.30
2022-09-15T04:39:19.345Z,1.60
2022-09-15T04:40:19.424Z,1.60
2022-09-15T04:41:19.334Z,1.60
2022-09-15T04:42:19.330Z,2.00
2022-09-15T04:43:19.341Z,1.90
2022-09-15T04:44:19.598Z,2.10
2022-09-15T04:45:19.293Z,2.20
2022-09-15T04:46:19.358Z,2.00
2022-09-15T04:47:19.267Z,1.70
2022-09-15T04:48:19.256Z,2.00
2022-09-15T04:49:19.276Z,1.80
2022-09-15T04:50:19.241Z,1.90
2022-09-15T04:51:19.494Z,2.00
2022-09-15T04:52:19.217Z,2.30
2022-09-15T04:53:19.200Z,2.00
2022-09-15T04:54:19.202Z,1.50
2022-09-15T04:55:19.222Z,2.20
2022-09-15T04:56:19.175Z,2.00
2022-09-15T04:57:19.174Z,2.00
2022-09-15T04:58:19.444Z,2.50
2022-09-15T04:59:19.138Z,2.40
2022-09-15T05:00:19.150Z,2.90
2022-09-15T05:01:19.294Z,1.40
2022-09-15T05:02:19.204Z,2.20
2022-09-15T05:03:19.098Z,2.40
2022-09-15T05:04:19.094Z,1.70
2022-09-15T05:05:19.353Z,2.00
2022-09-15T05:06:19.081Z,2.20
2022-09-15T05:07:19.092Z,2.20
2022-09-15T05:08:19.060Z,1.80
2022-09-15T05:09:19.030Z,1.70
2022-09-15T05:10:19.040Z,1.70
2022-09-15T05:11:19.007Z,1.70
2022-09-15T05:12:20.322Z,2.40
2022-09-15T05:13:19.014Z,1.90
2022-09-15T05:14:18.975Z,2.00
2022-09-15T05:15:18.962Z,1.90
2022-09-15T05:16:19.034Z,1.50
2022-09-15T05:17:18.979Z,2.00
2022-09-15T05:18:18.930Z,2.00
2022-09-15T05:19:19.254Z,3.00
2022-09-15T05:20:18.983Z,2.10
2022-09-15T05:21:18.896Z,2.60
2022-09-15T05:22:18.901Z,2.40
2022-09-15T05:23:18.869Z,2.10
2022-09-15T05:24:18.902Z,2.00
2022-09-15T05:25:18.883Z,1.90
2022-09-15T05:26:19.172Z,1.90
2022-09-15T05:27:18.842Z,1.90
2022-09-15T05:28:18.832Z,2.30
2022-09-15T05:29:18.819Z,2.10
2022-09-15T05:31:18.843Z,2.70
2022-09-15T05:32:18.786Z,2.40
2022-09-15T05:33:19.050Z,2.00
2022-09-15T05:34:18.768Z,2.10
2022-09-15T05:35:18.755Z,1.40
2022-09-15T05:36:18.749Z,1.90
2022-09-15T05:37:19.881Z,1.70
2022-09-15T05:38:18.734Z,1.70
2022-09-15T05:39:18.699Z,1.90
2022-09-15T05:40:19.068Z,1.90
2022-09-15T05:41:18.673Z,1.50
2022-09-15T05:42:18.681Z,2.30
2022-09-15T05:43:18.681Z,1.50
2022-09-15T05:44:18.657Z,2.10
2022-09-15T05:45:18.627Z,1.70
2022-09-15T05:46:18.751Z,1.70
2022-09-15T05:47:18.618Z,1.60
2022-09-15T05:48:18.604Z,1.60
2022-09-15T05:49:18.618Z,1.50
2022-09-15T05:50:18.586Z,2.60
2022-09-15T05:51:18.569Z,1.60
2022-09-15T05:52:18.567Z,1.60
2022-09-15T05:53:18.821Z,1.40
2022-09-15T05:54:18.550Z,1.40
2022-09-15T05:55:18.561Z,1.60
2022-09-15T05:56:18.544Z,1.40
2022-09-15T05:57:18.497Z,1.40
2022-09-15T05:58:18.499Z,1.20
2022-09-15T05:59:18.482Z,1.60
2022-09-15T06:00:18.758Z,1.70
2022-09-15T06:01:18.519Z,1.50
2022-09-15T06:02:18.537Z,1.70
2022-09-15T06:03:18.488Z,1.40
2022-09-15T06:04:18.453Z,1.80
2022-09-15T06:05:18.437Z,1.40
2022-09-15T06:06:18.448Z,1.40
2022-09-15T06:07:18.707Z,1.20
2022-09-15T06:08:18.395Z,1.70
2022-09-15T06:09:18.377Z,1.50
2022-09-15T06:10:18.378Z,1.10
2022-09-15T06:11:18.354Z,1.40
2022-09-15T06:12:18.365Z,1.00
2022-09-15T06:13:18.373Z,1.20
2022-09-15T06:14:18.331Z,1.50
2022-09-15T06:15:18.312Z,1.00
2022-09-15T06:16:18.469Z,1.20
2022-09-15T06:17:18.313Z,1.80
2022-09-15T06:18:18.297Z,1.30
2022-09-15T06:19:18.605Z,1.40
2022-09-15T06:20:18.281Z,1.30
2022-09-15T06:21:18.244Z,1.40
2022-09-15T06:22:18.248Z,1.60
2022-09-15T06:23:18.235Z,2.10
2022-09-15T06:24:18.231Z,1.90
2022-09-15T06:25:18.255Z,1.30
2022-09-15T06:26:18.241Z,1.00
2022-09-15T06:27:18.175Z,1.50
2022-09-15T06:28:18.179Z,1.90
2022-09-15T06:29:18.163Z,1.10
2022-09-15T06:30:18.159Z,1.30
2022-09-15T06:31:18.529Z,1.50
2022-09-15T06:32:18.142Z,1.70
2022-09-15T06:33:18.129Z,0.90
2022-09-15T06:34:18.135Z,1.30
2022-09-15T06:35:18.133Z,1.30
2022-09-15T06:36:18.115Z,1.70
2022-09-15T06:37:18.169Z,1.20
2022-09-15T06:38:18.356Z,2.00
2022-09-15T06:39:18.053Z,1.60
2022-09-15T06:40:18.212Z,0.90
2022-09-15T06:41:18.037Z,1.10
2022-09-15T06:42:18.019Z,1.50
2022-09-15T06:43:18.066Z,1.20
2022-09-15T06:44:18.013Z,1.10
2022-09-15T06:45:18.294Z,1.70
2022-09-15T06:46:18.034Z,1.50
2022-09-15T06:47:17.979Z,1.20
2022-09-15T06:48:24.431Z,1.50
2022-09-15T06:49:18.048Z,1.10
2022-09-15T06:50:17.929Z,1.40
2022-09-15T06:51:17.935Z,1.20
2022-09-15T06:52:18.198Z,1.10
2022-09-15T06:53:17.907Z,1.20
2022-09-15T06:54:17.891Z,1.50
2022-09-15T06:55:17.920Z,1.30
2022-09-15T06:56:17.875Z,1.10
2022-09-15T06:57:17.869Z,0.90
2022-09-15T06:58:17.864Z,1.60
2022-09-15T06:59:18.138Z,1.60
2022-09-15T07:00:17.824Z,1.10
2022-09-15T07:01:17.897Z,1.20
2022-09-15T07:02:17.920Z,1.50
2022-09-15T07:03:17.973Z,1.30
2022-09-15T07:04:17.787Z,1.40
2022-09-15T07:05:17.833Z,0.90
2022-09-15T07:06:18.066Z,1.10
2022-09-15T07:07:17.814Z,0.90
2022-09-15T07:08:17.753Z,1.80
2022-09-15T07:09:17.755Z,1.20
2022-09-15T07:10:17.759Z,0.90
2022-09-15T07:11:17.728Z,1.00
2022-09-15T07:12:17.729Z,1.50
2022-09-15T07:13:18.053Z,1.30
2022-09-15T07:14:17.683Z,1.30
2022-09-15T07:15:17.702Z,0.90
2022-09-15T07:16:17.724Z,1.20
2022-09-15T07:17:17.668Z,1.50
2022-09-15T07:18:17.651Z,1.00
2022-09-15T07:19:17.677Z,1.60
2022-09-15T07:20:17.900Z,1.40
2022-09-15T07:21:17.631Z,1.00
2022-09-15T07:22:17.609Z,1.00
2022-09-15T07:23:17.605Z,1.20
2022-09-15T07:24:17.571Z,1.20
2022-09-15T07:25:17.653Z,1.30
2022-09-15T07:26:17.558Z,1.20
2022-09-15T07:27:17.823Z,0.80
2022-09-15T07:28:17.532Z,0.90
2022-09-15T07:29:17.531Z,1.70
2022-09-15T07:30:17.540Z,1.00
2022-09-15T07:31:17.618Z,1.80
2022-09-15T07:32:17.501Z,1.20
2022-09-15T07:33:17.526Z,0.90
2022-09-15T07:34:17.753Z,1.70
2022-09-15T07:35:17.486Z,0.80
2022-09-15T07:36:17.447Z,1.10
2022-09-15T07:37:17.497Z,1.50
2022-09-15T07:38:17.442Z,1.00
2022-09-15T07:39:17.427Z,1.20
2022-09-15T07:40:17.469Z,1.00
2022-09-15T07:41:17.697Z,1.20
2022-09-15T07:42:17.407Z,1.10
2022-09-15T07:43:17.414Z,0.80
2022-09-15T07:44:17.396Z,1.20
2022-09-15T07:45:17.361Z,1.40
2022-09-15T07:46:17.354Z,1.00
2022-09-15T07:47:17.343Z,1.10
2022-09-15T07:48:17.619Z,0.80
2022-09-15T07:49:17.383Z,0.90
2022-09-15T07:50:17.312Z,0.90
2022-09-15T07:51:17.302Z,0.80
2022-09-15T07:52:17.290Z,0.60
2022-09-15T07:53:17.282Z,0.80
2022-09-15T07:54:21.954Z,0.90
2022-09-15T07:55:17.313Z,1.10
2022-09-15T07:56:17.244Z,1.00
2022-09-15T07:57:17.245Z,0.60
2022-09-15T07:58:17.218Z,0.70
2022-09-15T07:59:17.225Z,0.90
2022-09-15T08:00:17.197Z,1.20
2022-09-15T08:01:17.683Z,1.30
2022-09-15T08:02:17.283Z,0.90
2022-09-15T08:03:17.195Z,0.70
2022-09-15T08:04:17.169Z,0.70
2022-09-15T08:05:17.193Z,1.90
2022-09-15T08:06:17.135Z,0.60
2022-09-15T08:07:17.217Z,0.60
2022-09-15T08:08:17.430Z,0.60
2022-09-15T08:09:17.124Z,1.00
2022-09-15T08:10:17.105Z,0.90
2022-09-15T08:11:18.899Z,0.60
2022-09-15T08:12:17.089Z,0.60
2022-09-15T08:13:17.130Z,0.80
2022-09-15T08:14:17.052Z,0.70
2022-09-15T08:15:17.369Z,0.50
2022-09-15T08:16:17.149Z,0.70
2022-09-15T08:17:17.042Z,0.70
2022-09-15T08:18:17.033Z,0.60
2022-09-15T08:19:17.051Z,0.80
2022-09-15T08:20:16.987Z,0.80
2022-09-15T08:21:16.980Z,0.90
2022-09-15T08:22:17.267Z,0.80
2022-09-15T08:23:16.993Z,0.80
2022-09-15T08:24:16.982Z,0.60
2022-09-15T08:25:16.996Z,0.40
2022-09-15T08:26:16.949Z,0.60
2022-09-15T08:27:16.974Z,0.60
2022-09-15T08:28:16.898Z,0.80
2022-09-15T08:29:17.533Z,1.00
2022-09-15T08:30:17.111Z,0.90
2022-09-15T08:31:17.042Z,0.70
2022-09-15T08:32:16.894Z,1.30
2022-09-15T08:33:16.858Z,0.50
2022-09-15T08:34:16.843Z,0.60
2022-09-15T08:35:16.860Z,0.80
2022-09-15T08:36:17.102Z,1.00
2022-09-15T08:37:16.842Z,0.80
2022-09-15T08:38:16.819Z,0.90
2022-09-15T08:39:16.785Z,0.80
2022-09-15T08:40:16.843Z,0.50
2022-09-15T08:41:16.778Z,0.70
2022-09-15T08:42:16.770Z,0.40
2022-09-15T08:43:17.068Z,0.60
2022-09-15T08:44:16.727Z,0.80
2022-09-15T08:45:16.756Z,1.10
2022-09-15T08:46:16.738Z,0.90
2022-09-15T08:47:16.717Z,0.70
2022-09-15T08:48:16.716Z,0.80
2022-09-15T08:49:26.842Z,0.70
2022-09-15T08:50:16.678Z,0.70
2022-09-15T08:51:16.665Z,0.70
2022-09-15T08:52:16.643Z,0.50
2022-09-15T08:53:16.682Z,0.70
2022-09-15T08:54:16.634Z,0.60
2022-09-15T08:55:16.651Z,0.40
2022-09-15T08:56:16.890Z,0.50
2022-09-15T08:57:16.609Z,0.70
2022-09-15T08:58:16.573Z,0.70
2022-09-15T08:59:16.597Z,0.70
2022-09-15T09:00:16.587Z,0.40
2022-09-15T09:01:16.635Z,0.50
2022-09-15T09:02:16.600Z,0.80
2022-09-15T09:03:16.564Z,0.60
2022-09-15T09:04:18.187Z,1.00
2022-09-15T09:05:16.635Z,0.50
2022-09-15T09:06:16.554Z,0.80
2022-09-15T09:07:16.533Z,0.50
2022-09-15T09:08:16.796Z,0.60
2022-09-15T09:09:16.503Z,0.60
2022-09-15T09:10:16.471Z,0.50
2022-09-15T09:11:16.457Z,0.70
2022-09-15T09:12:16.463Z,0.60
2022-09-15T09:13:16.466Z,0.40
2022-09-15T09:14:16.405Z,0.90
2022-09-15T09:15:16.420Z,1.10
2022-09-15T09:16:16.458Z,0.50
2022-09-15T09:17:16.405Z,0.70
2022-09-15T09:18:16.364Z,0.90
2022-09-15T09:19:16.421Z,0.90
2022-09-15T09:20:16.673Z,1.40
2022-09-15T09:21:16.342Z,0.80
2022-09-15T09:22:16.334Z,0.50
2022-09-15T09:23:16.339Z,0.60
2022-09-15T09:24:16.323Z,0.70
2022-09-15T09:25:27.154Z,0.90
2022-09-15T09:26:16.279Z,0.50
2022-09-15T09:27:16.575Z,0.50
2022-09-15T09:28:16.260Z,0.60
2022-09-15T09:29:16.279Z,0.70
2022-09-15T09:30:16.345Z,0.40
2022-09-15T09:31:16.286Z,1.00
2022-09-15T09:32:19.798Z,0.40
2022-09-15T09:33:16.227Z,0.30
2022-09-15T09:34:16.489Z,1.40
2022-09-15T09:35:16.223Z,0.60
2022-09-15T09:36:16.182Z,0.90
2022-09-15T09:37:16.477Z,0.90
2022-09-15T09:38:16.170Z,0.80
2022-09-15T09:39:16.170Z,1.10
2022-09-15T09:40:16.281Z,0.80
2022-09-15T09:41:16.450Z,0.60
2022-09-15T09:42:16.094Z,0.60
2022-09-15T09:43:16.146Z,0.60
2022-09-15T09:44:16.087Z,0.80
2022-09-15T09:45:16.084Z,1.20
2022-09-15T09:46:16.090Z,0.80
2022-09-15T09:47:16.053Z,0.80
2022-09-15T09:48:16.328Z,0.90
2022-09-15T09:49:16.108Z,0.90
2022-09-15T09:50:16.015Z,0.60
2022-09-15T09:51:16.034Z,0.70
2022-09-15T09:52:18.912Z,0.80
2022-09-15T09:53:16.012Z,0.80
2022-09-15T09:54:15.984Z,0.40
2022-09-15T09:55:16.278Z,0.50
2022-09-15T09:56:16.047Z,0.50
2022-09-15T09:57:15.993Z,0.50
2022-09-15T09:58:15.971Z,0.90
2022-09-15T09:59:15.976Z,0.60
2022-09-15T10:00:15.921Z,0.90
2022-09-15T10:01:16.038Z,0.70
2022-09-15T10:02:16.216Z,0.80
2022-09-15T10:03:15.900Z,0.70
2022-09-15T10:04:15.869Z,0.40
2022-09-15T10:05:16.067Z,0.40
2022-09-15T10:06:15.863Z,1.00
2022-09-15T10:07:15.886Z,0.60
2022-09-15T10:08:15.826Z,1.00
2022-09-15T10:09:16.103Z,1.00
2022-09-15T10:10:15.825Z,0.90
2022-09-15T10:11:15.816Z,0.70
2022-09-15T10:12:15.787Z,0.50
2022-09-15T10:13:15.876Z,0.70
2022-09-15T10:14:15.790Z,0.60
2022-09-15T10:15:15.784Z,0.70
2022-09-15T10:16:16.071Z,1.30
2022-09-15T10:17:15.751Z,1.00
2022-09-15T10:18:15.726Z,0.90
2022-09-15T10:19:15.758Z,0.80
2022-09-15T10:20:15.743Z,0.80
2022-09-15T10:21:15.712Z,0.60
2022-09-15T10:22:15.702Z,0.70
2022-09-15T10:23:15.999Z,0.70
2022-09-15T10:24:18.111Z,0.70
2022-09-15T10:25:15.707Z,0.80
2022-09-15T10:26:15.674Z,0.80
2022-09-15T10:27:15.642Z,0.80
2022-09-15T10:28:15.633Z,0.60
2022-09-15T10:29:15.621Z,0.70
2022-09-15T10:30:15.876Z,0.50
2022-09-15T10:31:15.754Z,0.70
2022-09-15T10:32:15.653Z,0.40
2022-09-15T10:33:15.588Z,1.20
2022-09-15T10:34:15.557Z,0.50
2022-09-15T10:35:15.581Z,0.50
2022-09-15T10:36:15.562Z,0.30
2022-09-15T10:37:15.904Z,1.00
2022-09-15T10:38:15.536Z,0.50
2022-09-15T10:39:15.541Z,0.60
2022-09-15T10:40:15.571Z,0.60
2022-09-15T10:41:15.502Z,0.50
2022-09-15T10:42:15.474Z,0.40
2022-09-15T10:43:15.513Z,0.60
2022-09-15T10:44:15.732Z,0.30
2022-09-15T10:45:15.472Z,0.40
2022-09-15T10:46:15.459Z,0.30
2022-09-15T10:47:15.446Z,1.00
2022-09-15T10:48:15.431Z,0.50
2022-09-15T10:49:15.444Z,0.90
2022-09-15T10:50:15.397Z,1.00
2022-09-15T10:51:15.659Z,0.40
2022-09-15T10:52:15.398Z,0.50
2022-09-15T10:53:15.353Z,0.60
2022-09-15T10:54:15.356Z,0.60
2022-09-15T10:55:15.357Z,0.60
2022-09-15T10:56:15.326Z,1.10
2022-09-15T10:57:15.362Z,0.50
2022-09-15T10:58:15.595Z,0.60
2022-09-15T10:59:15.284Z,0.50
2022-09-15T11:00:15.315Z,0.50
2022-09-15T11:01:15.393Z,0.60
2022-09-15T11:02:15.339Z,0.40
2022-09-15T11:03:15.280Z,0.60
2022-09-15T11:04:15.265Z,0.50
2022-09-15T11:05:20.395Z,0.40
2022-09-15T11:06:15.245Z,0.50
2022-09-15T11:07:15.277Z,0.70
2022-09-15T11:08:15.205Z,0.50
2022-09-15T11:09:15.196Z,0.50
2022-09-15T11:10:15.178Z,0.40
2022-09-15T11:11:15.171Z,0.60
2022-09-15T11:12:15.489Z,0.70
2022-09-15T11:13:15.230Z,0.60
2022-09-15T11:14:15.163Z,0.50
2022-09-15T11:15:15.125Z,0.80
2022-09-15T11:16:15.209Z,0.50
2022-09-15T11:17:15.110Z,0.40
2022-09-15T11:18:15.129Z,0.50
2022-09-15T11:19:15.393Z,0.30
2022-09-15T11:20:15.098Z,0.70
2022-09-15T11:21:15.123Z,0.40
2022-09-15T11:22:15.061Z,0.50
2022-09-15T11:23:15.065Z,0.60
2022-09-15T11:24:15.038Z,0.30
2022-09-15T11:25:15.056Z,0.70
2022-09-15T11:26:15.297Z,0.50
2022-09-15T11:27:15.005Z,0.50
2022-09-15T11:28:14.987Z,0.30
2022-09-15T11:29:14.977Z,0.40
2022-09-15T11:30:14.986Z,0.40
2022-09-15T11:31:15.078Z,0.40
2022-09-15T11:32:14.950Z,0.50
2022-09-15T11:33:15.224Z,0.70
2022-09-15T11:34:14.930Z,1.20
2022-09-15T11:35:14.910Z,0.40
2022-09-15T11:36:14.918Z,0.50
2022-09-15T11:37:15.016Z,0.30
2022-09-15T11:38:14.896Z,0.30
2022-09-15T11:39:14.878Z,0.30
2022-09-15T11:40:15.238Z,0.30
2022-09-15T11:41:14.900Z,0.40
2022-09-15T11:42:14.839Z,0.40
2022-09-15T11:43:14.898Z,0.40
2022-09-15T11:44:16.725Z,0.60
2022-09-15T11:45:14.823Z,0.30
2022-09-15T11:46:14.825Z,0.50
2022-09-15T11:47:15.065Z,0.40
2022-09-15T11:48:14.804Z,0.70
2022-09-15T11:49:14.819Z,0.60
2022-09-15T11:50:14.815Z,0.40
2022-09-15T11:51:14.759Z,0.50
2022-09-15T11:52:14.771Z,0.60
2022-09-15T11:53:14.721Z,0.40
2022-09-15T11:54:15.018Z,0.50
2022-09-15T11:55:14.740Z,0.50
2022-09-15T11:56:14.705Z,0.60
2022-09-15T11:57:14.690Z,0.40
2022-09-15T11:58:18.447Z,0.60
2022-09-15T11:59:14.682Z,0.50
2022-09-15T12:00:14.659Z,0.40
2022-09-15T12:01:14.951Z,0.40
2022-09-15T12:02:14.656Z,0.80
2022-09-15T12:03:14.709Z,0.40
2022-09-15T12:04:14.604Z,0.50
2022-09-15T12:05:15.043Z,0.40
2022-09-15T12:06:14.587Z,0.50
2022-09-15T12:07:14.885Z,0.50
2022-09-15T12:08:14.847Z,0.60
2022-09-15T12:09:14.567Z,0.70
2022-09-15T12:10:14.589Z,0.60
2022-09-15T12:11:14.527Z,0.50
2022-09-15T12:12:14.525Z,0.70
2022-09-15T12:13:14.574Z,0.80
2022-09-15T12:14:14.612Z,0.80
2022-09-15T12:15:14.764Z,0.60
2022-09-15T12:16:14.543Z,0.70
2022-09-15T12:17:14.506Z,0.70
2022-09-15T12:18:27.655Z,0.70
2022-09-15T12:19:14.506Z,0.40
2022-09-15T12:20:14.472Z,0.60
2022-09-15T12:21:14.424Z,0.60
2022-09-15T12:22:14.710Z,0.60
2022-09-15T12:23:14.401Z,0.60
2022-09-15T12:24:14.400Z,0.50
2022-09-15T12:25:14.426Z,0.80
2022-09-15T12:26:14.371Z,0.40
2022-09-15T12:27:14.356Z,0.50
2022-09-15T12:28:14.371Z,0.80
2022-09-15T12:29:14.618Z,0.50
2022-09-15T12:30:14.374Z,0.70
2022-09-15T12:31:14.453Z,0.50
2022-09-15T12:32:14.341Z,0.60
2022-09-15T12:33:14.311Z,0.60
2022-09-15T12:34:14.293Z,0.50
2022-09-15T12:35:14.278Z,0.40
2022-09-15T12:36:14.585Z,0.60
2022-09-15T12:37:14.306Z,0.70
2022-09-15T12:38:14.262Z,0.80
2022-09-15T12:39:14.263Z,0.80
2022-09-15T12:40:14.287Z,0.60
2022-09-15T12:41:14.234Z,0.80
2022-09-15T12:42:14.227Z,0.90
2022-09-15T12:43:14.550Z,0.50
2022-09-15T12:44:14.200Z,0.60
2022-09-15T12:45:14.188Z,0.50
2022-09-15T12:46:14.190Z,0.60
2022-09-15T12:47:14.204Z,0.70
2022-09-15T12:48:14.176Z,0.40
2022-09-15T12:49:14.239Z,0.60
2022-09-15T12:50:14.434Z,0.60
2022-09-15T12:51:14.118Z,0.80
2022-09-15T12:52:14.100Z,0.50
2022-09-15T12:53:14.082Z,1.00
2022-09-15T12:54:14.087Z,0.70
2022-09-15T12:55:14.111Z,0.60
2022-09-15T12:56:14.117Z,0.70
2022-09-15T12:57:14.332Z,0.70
2022-09-15T12:58:14.055Z,0.50
2022-09-15T12:59:14.025Z,0.50
2022-09-15T13:00:14.970Z,0.50
2022-09-15T13:01:18.247Z,0.90
2022-09-15T13:02:14.119Z,0.60
2022-09-15T13:03:14.108Z,0.40
2022-09-15T13:04:14.293Z,0.40
2022-09-15T13:05:13.996Z,0.40
2022-09-15T13:06:13.954Z,1.20
2022-09-15T13:07:13.966Z,0.60
2022-09-15T13:08:13.952Z,0.80
2022-09-15T13:09:13.929Z,0.70
2022-09-15T13:10:13.908Z,0.40
2022-09-15T13:11:14.170Z,0.40
2022-09-15T13:12:13.900Z,0.40
2022-09-15T13:13:13.941Z,0.70
2022-09-15T13:14:13.904Z,0.80
2022-09-15T13:15:13.870Z,0.40
2022-09-15T13:16:13.958Z,0.40
2022-09-15T13:17:13.836Z,0.50
2022-09-15T13:18:14.137Z,0.40
2022-09-15T13:19:13.850Z,0.40